Time,TemperatureF,DewpointF,PressureIn,WindDirection,WindDirectionDegrees,WindSpeedMPH,WindSpeedGustMPH,Humidity,HourlyPrecipIn,Conditions,Clouds,dailyrainin,SoftwareType,DateUTC
2013-03-21 00:00:00,37.2,23.7,29.87,West,267,2.0,6.0,58,0.00,,,0.00,meteohub,2013-03-21 04:00:00,
2013-03-21 00:05:00,37.2,23.0,29.87,West,260,1.0,5.0,56,0.00,,,0.00,meteohub,2013-03-21 04:05:00,
2013-03-21 00:10:00,37.9,24.4,29.87,West,266,1.0,5.0,58,0.00,,,0.00,meteohub,2013-03-21 04:10:00,
2013-03-21 00:15:00,38.3,26.8,29.87,WNW,284,3.0,5.0,63,0.00,,,0.00,meteohub,2013-03-21 04:15:00,
2013-03-21 00:20:00,38.5,26.6,29.87,WNW,288,1.0,5.0,62,0.00,,,0.00,meteohub,2013-03-21 04:20:00,
2013-03-21 00:25:00,38.5,25.3,29.87,West,278,2.0,3.0,59,0.00,,,0.00,meteohub,2013-03-21 04:25:00,
2013-03-21 00:30:00,38.5,26.6,29.87,WNW,288,2.0,3.0,62,0.00,,,0.00,meteohub,2013-03-21 04:30:00,
2013-03-21 00:35:00,38.5,27.3,29.87,West,281,2.0,3.0,64,0.00,,,0.00,meteohub,2013-03-21 04:35:00,
2013-03-21 00:40:00,38.5,28.0,29.87,West,267,2.0,3.0,66,0.00,,,0.00,meteohub,2013-03-21 04:40:00,
2013-03-21 00:45:00,38.1,26.6,29.88,West,264,4.0,8.0,63,0.00,,,0.00,meteohub,2013-03-21 04:45:00,
2013-03-21 00:50:00,38.1,25.5,29.88,SW,215,1.0,8.0,60,0.00,,,0.00,meteohub,2013-03-21 04:50:00,
2013-03-21 00:55:00,38.3,26.1,29.88,West,280,2.0,8.0,61,0.00,,,0.00,meteohub,2013-03-21 04:55:00,
2013-03-21 01:00:00,38.5,27.3,29.88,WNW,285,4.0,7.0,64,0.00,,,0.00,meteohub,2013-03-21 05:00:00,
2013-03-21 01:05:00,38.7,28.2,29.87,WNW,300,3.0,7.0,66,0.00,,,0.00,meteohub,2013-03-21 05:05:00,
2013-03-21 01:10:00,38.5,29.1,29.87,WNW,297,4.0,6.0,69,0.00,,,0.00,meteohub,2013-03-21 05:10:00,
2013-03-21 01:15:00,38.3,27.5,29.87,WNW,284,2.0,6.0,65,0.00,,,0.00,meteohub,2013-03-21 05:15:00,
2013-03-21 01:20:00,38.1,28.9,29.87,WNW,302,2.0,6.0,69,0.00,,,0.00,meteohub,2013-03-21 05:20:00,
2013-03-21 01:25:00,38.1,30.6,29.87,NW,312,5.0,5.0,74,0.00,,,0.00,meteohub,2013-03-21 05:25:00,
2013-03-21 01:30:00,38.1,29.8,29.87,WNW,300,6.0,6.0,72,0.00,,,0.00,meteohub,2013-03-21 05:30:00,
2013-03-21 01:35:00,37.9,29.3,29.86,NW,321,5.0,8.0,71,0.00,,,0.00,meteohub,2013-03-21 05:35:00,
2013-03-21 01:40:00,37.9,30.0,29.86,NW,309,4.0,9.0,73,0.00,,,0.00,meteohub,2013-03-21 05:40:00,
2013-03-21 01:45:00,37.8,30.6,29.86,NW,307,6.0,9.0,75,0.00,,,0.00,meteohub,2013-03-21 05:45:00,
2013-03-21 01:51:00,37.6,30.4,29.86,NW,316,5.0,9.0,75,0.00,,,0.00,meteohub,2013-03-21 05:51:00,
2013-03-21 01:55:00,37.4,30.2,29.86,WNW,301,6.0,9.0,75,0.00,,,0.00,meteohub,2013-03-21 05:55:00,
2013-03-21 02:00:00,37.2,30.0,29.85,NW,312,5.0,9.0,75,0.00,,,0.00,meteohub,2013-03-21 06:00:00,
2013-03-21 02:06:00,37.2,30.4,29.85,NW,307,5.0,9.0,76,0.00,,,0.00,meteohub,2013-03-21 06:06:00,
2013-03-21 02:11:00,37.2,30.4,29.85,NW,316,5.0,9.0,76,0.00,,,0.00,meteohub,2013-03-21 06:11:00,
2013-03-21 02:16:00,37.2,30.0,29.85,NW,324,5.0,8.0,75,0.00,,,0.00,meteohub,2013-03-21 06:16:00,
2013-03-21 02:21:00,37.0,30.2,29.85,NNW,330,4.0,8.0,76,0.00,,,0.00,meteohub,2013-03-21 06:21:00,
2013-03-21 02:26:00,37.0,29.5,29.84,NW,318,4.0,10.0,74,0.00,,,0.00,meteohub,2013-03-21 06:26:00,
2013-03-21 02:31:00,37.0,29.8,29.84,NW,309,7.0,13.0,75,0.00,,,0.00,meteohub,2013-03-21 06:31:00,
2013-03-21 02:36:00,36.7,29.5,29.84,NW,314,6.0,13.0,75,0.00,,,0.00,meteohub,2013-03-21 06:36:00,
2013-03-21 02:41:00,36.5,29.3,29.84,NW,321,8.0,13.0,75,0.00,,,0.00,meteohub,2013-03-21 06:41:00,
2013-03-21 02:46:00,36.3,30.2,29.84,NW,307,6.0,12.0,78,0.00,,,0.00,meteohub,2013-03-21 06:46:00,
2013-03-21 02:51:00,36.3,29.8,29.83,NW,308,7.0,10.0,77,0.00,,,0.00,meteohub,2013-03-21 06:51:00,
2013-03-21 02:56:00,36.3,29.5,29.83,NW,314,7.0,9.0,76,0.00,,,0.00,meteohub,2013-03-21 06:56:00,
2013-03-21 03:01:00,36.3,29.8,29.83,NW,321,7.0,9.0,77,0.00,,,0.00,meteohub,2013-03-21 07:01:00,
2013-03-21 03:06:00,36.3,29.1,29.84,WNW,298,7.0,10.0,75,0.00,,,0.00,meteohub,2013-03-21 07:06:00,
2013-03-21 03:11:00,36.5,29.7,29.83,NW,304,7.0,10.0,76,0.00,,,0.00,meteohub,2013-03-21 07:11:00,
2013-03-21 03:16:00,36.5,30.0,29.83,NW,307,6.0,10.0,77,0.00,,,0.00,meteohub,2013-03-21 07:16:00,
2013-03-21 03:21:00,36.5,28.9,29.83,NW,315,4.0,10.0,74,0.00,,,0.00,meteohub,2013-03-21 07:21:00,
2013-03-21 03:26:00,36.7,29.5,29.83,NW,314,4.0,9.0,75,0.00,,,0.00,meteohub,2013-03-21 07:26:00,
2013-03-21 03:31:00,36.7,29.1,29.83,NNW,329,6.0,9.0,74,0.00,,,0.00,meteohub,2013-03-21 07:31:00,
2013-03-21 03:36:00,36.7,28.8,29.83,WNW,302,5.0,8.0,73,0.00,,,0.00,meteohub,2013-03-21 07:36:00,
2013-03-21 03:41:00,36.7,28.6,29.83,NW,309,4.0,9.0,72,0.00,,,0.00,meteohub,2013-03-21 07:41:00,
2013-03-21 03:46:00,36.7,28.2,29.83,NW,317,4.0,9.0,71,0.00,,,0.00,meteohub,2013-03-21 07:46:00,
2013-03-21 03:51:00,36.7,28.8,29.82,WNW,297,2.0,7.0,73,0.00,,,0.00,meteohub,2013-03-21 07:51:00,
2013-03-21 03:57:00,36.7,28.2,29.82,NW,308,4.0,9.0,71,0.00,,,0.00,meteohub,2013-03-21 07:57:00,
2013-03-21 04:02:00,36.7,28.8,29.82,NW,314,4.0,9.0,73,0.00,,,0.00,meteohub,2013-03-21 08:02:00,
2013-03-21 04:07:00,36.7,28.8,29.82,NW,316,3.0,9.0,73,0.00,,,0.00,meteohub,2013-03-21 08:07:00,
2013-03-21 04:12:00,36.7,29.5,29.81,WNW,297,3.0,8.0,75,0.00,,,0.00,meteohub,2013-03-21 08:12:00,
2013-03-21 04:17:00,36.7,28.6,29.81,NW,314,4.0,7.0,72,0.00,,,0.00,meteohub,2013-03-21 08:17:00,
2013-03-21 04:22:00,36.7,28.2,29.81,NW,326,5.0,7.0,71,0.00,,,0.00,meteohub,2013-03-21 08:22:00,
2013-03-21 04:27:00,36.7,28.6,29.81,NW,326,3.0,10.0,72,0.00,,,0.00,meteohub,2013-03-21 08:27:00,
2013-03-21 04:32:00,36.7,27.9,29.81,NNW,335,10.0,12.0,70,0.00,,,0.00,meteohub,2013-03-21 08:32:00,
2013-03-21 04:37:00,36.3,27.9,29.81,NNW,339,9.0,15.0,71,0.00,,,0.00,meteohub,2013-03-21 08:37:00,
2013-03-21 04:42:00,36.1,28.0,29.81,North,3,10.0,16.0,72,0.00,,,0.00,meteohub,2013-03-21 08:42:00,
2013-03-21 04:47:00,36.0,28.2,29.81,NW,317,9.0,16.0,73,0.00,,,0.00,meteohub,2013-03-21 08:47:00,
2013-03-21 04:52:00,36.0,28.2,29.81,NNW,336,8.0,16.0,73,0.00,,,0.00,meteohub,2013-03-21 08:52:00,
2013-03-21 04:57:00,35.8,27.7,29.81,NNW,337,7.0,14.0,72,0.00,,,0.00,meteohub,2013-03-21 08:57:00,
2013-03-21 05:02:00,35.8,28.0,29.81,North,355,9.0,14.0,73,0.00,,,0.00,meteohub,2013-03-21 09:02:00,
2013-03-21 05:07:00,35.6,27.5,29.81,North,8,10.0,12.0,72,0.00,,,0.00,meteohub,2013-03-21 09:07:00,
2013-03-21 05:12:00,35.4,27.3,29.81,NNW,345,7.0,13.0,72,0.00,,,0.00,meteohub,2013-03-21 09:12:00,
2013-03-21 05:17:00,35.4,27.7,29.81,NNW,344,6.0,13.0,73,0.00,,,0.00,meteohub,2013-03-21 09:17:00,
2013-03-21 05:22:00,35.4,27.7,29.81,North,10,9.0,14.0,73,0.00,,,0.00,meteohub,2013-03-21 09:22:00,
2013-03-21 05:27:00,35.2,27.1,29.81,NNW,348,7.0,14.0,72,0.00,,,0.00,meteohub,2013-03-21 09:27:00,
2013-03-21 05:32:00,35.2,27.9,29.81,WNW,301,3.0,14.0,74,0.00,,,0.00,meteohub,2013-03-21 09:32:00,
2013-03-21 05:37:00,35.1,27.0,29.81,NNW,340,6.0,12.0,72,0.00,,,0.00,meteohub,2013-03-21 09:37:00,
2013-03-21 05:42:00,35.1,27.0,29.81,North,356,7.0,11.0,72,0.00,,,0.00,meteohub,2013-03-21 09:42:00,
2013-03-21 05:47:00,35.2,27.1,29.81,NNE,20,7.0,10.0,72,0.00,,,0.00,meteohub,2013-03-21 09:47:00,
2013-03-21 05:52:00,35.2,27.1,29.81,NNW,335,5.0,10.0,72,0.00,,,0.00,meteohub,2013-03-21 09:52:00,
2013-03-21 05:57:00,35.2,26.8,29.81,NE,34,6.0,10.0,71,0.00,,,0.00,meteohub,2013-03-21 09:57:00,
2013-03-21 06:02:00,35.4,26.6,29.81,North,0,6.0,10.0,70,0.00,,,0.00,meteohub,2013-03-21 10:02:00,
2013-03-21 06:07:00,35.4,26.6,29.81,NNE,18,5.0,10.0,70,0.00,,,0.00,meteohub,2013-03-21 10:07:00,
2013-03-21 06:12:00,35.4,27.0,29.81,NNE,20,5.0,9.0,71,0.00,,,0.00,meteohub,2013-03-21 10:12:00,
2013-03-21 06:17:00,35.6,26.8,29.81,NNE,18,5.0,9.0,70,0.00,,,0.00,meteohub,2013-03-21 10:17:00,
2013-03-21 06:22:00,35.6,27.1,29.81,NNW,338,7.0,9.0,71,0.00,,,0.00,meteohub,2013-03-21 10:22:00,
2013-03-21 06:27:00,35.6,27.1,29.81,North,352,6.0,9.0,71,0.00,,,0.00,meteohub,2013-03-21 10:27:00,
2013-03-21 06:32:00,35.6,27.5,29.80,NW,308,7.0,10.0,72,0.00,,,0.00,meteohub,2013-03-21 10:32:00,
2013-03-21 06:37:00,35.6,27.5,29.80,North,356,7.0,11.0,72,0.00,,,0.00,meteohub,2013-03-21 10:37:00,
2013-03-21 06:42:00,34.7,26.2,29.80,NNE,18,8.0,11.0,71,0.00,,,0.00,meteohub,2013-03-21 10:42:00,
2013-03-21 06:47:00,34.7,26.2,29.80,NNE,18,8.0,13.0,71,0.00,,,0.00,meteohub,2013-03-21 10:47:00,
2013-03-21 07:34:00,34.9,28.4,29.80,North,-999,-999.0,-999.0,77,0.00,,,0.00,meteohub,2013-03-21 11:34:00,
2013-03-21 07:39:00,34.7,28.2,29.80,North,-999,-999.0,-999.0,77,0.00,,,0.00,meteohub,2013-03-21 11:39:00,
2013-03-21 07:44:00,34.5,28.4,29.80,NNE,20,10.0,-999.0,78,0.00,,,0.00,meteohub,2013-03-21 11:44:00,
2013-03-21 07:49:00,34.3,28.2,29.80,NE,43,11.0,14.0,78,0.00,,,0.00,meteohub,2013-03-21 11:49:00,
2013-03-21 07:54:00,34.3,28.2,29.81,ENE,65,10.0,15.0,78,0.00,,,0.00,meteohub,2013-03-21 11:54:00,
2013-03-21 07:59:00,34.3,28.2,29.81,NE,46,6.0,15.0,78,0.00,,,0.00,meteohub,2013-03-21 11:59:00,
2013-03-21 08:04:00,34.5,28.4,29.81,North,8,7.0,13.0,78,0.00,,,0.00,meteohub,2013-03-21 12:04:00,
2013-03-21 08:09:00,34.5,28.8,29.81,NE,44,9.0,13.0,79,0.00,,,0.00,meteohub,2013-03-21 12:09:00,
2013-03-21 08:14:00,34.5,28.0,29.81,NE,51,8.0,13.0,77,0.00,,,0.00,meteohub,2013-03-21 12:14:00,
2013-03-21 08:19:00,34.5,28.4,29.81,ENE,69,6.0,12.0,78,0.00,,,0.00,meteohub,2013-03-21 12:19:00,
2013-03-21 08:24:00,34.5,27.7,29.80,NNE,30,4.0,12.0,76,0.00,,,0.00,meteohub,2013-03-21 12:24:00,
2013-03-21 08:29:00,34.3,27.5,29.80,NE,40,8.0,12.0,76,0.00,,,0.00,meteohub,2013-03-21 12:29:00,
2013-03-21 08:34:00,34.3,27.5,29.80,NE,37,5.0,12.0,76,0.00,,,0.00,meteohub,2013-03-21 12:34:00,
2013-03-21 08:39:00,34.3,27.5,29.80,NE,56,5.0,13.0,76,0.00,,,0.00,meteohub,2013-03-21 12:39:00,
2013-03-21 08:44:00,34.3,27.3,29.80,NE,55,6.0,13.0,75,0.00,,,0.00,meteohub,2013-03-21 12:44:00,
2013-03-21 08:49:00,34.3,27.5,29.81,NNW,340,3.0,13.0,76,0.00,,,0.00,meteohub,2013-03-21 12:49:00,
2013-03-21 08:54:00,34.2,27.1,29.80,NE,44,8.0,12.0,75,0.00,,,0.00,meteohub,2013-03-21 12:54:00,
2013-03-21 08:59:00,34.3,27.5,29.80,NNW,337,4.0,12.0,76,0.00,,,0.00,meteohub,2013-03-21 12:59:00,
2013-03-21 09:04:00,34.5,27.5,29.80,NNW,333,10.0,12.0,75,0.00,,,0.00,meteohub,2013-03-21 13:04:00,
2013-03-21 09:09:00,34.3,27.0,29.80,NNE,21,9.0,13.0,74,0.00,,,0.00,meteohub,2013-03-21 13:09:00,
2013-03-21 09:14:00,34.3,27.3,29.79,NNE,19,8.0,15.0,75,0.00,,,0.00,meteohub,2013-03-21 13:14:00,
2013-03-21 09:20:00,34.3,27.3,29.79,NNE,18,11.0,15.0,75,0.00,,,0.00,meteohub,2013-03-21 13:20:00,
2013-03-21 09:25:00,34.3,27.3,29.80,NNW,328,9.0,15.0,75,0.00,,,0.00,meteohub,2013-03-21 13:25:00,
2013-03-21 09:30:00,34.3,27.3,29.79,NE,35,10.0,15.0,75,0.00,,,0.00,meteohub,2013-03-21 13:30:00,
2013-03-21 09:35:00,34.3,27.0,29.79,North,11,9.0,15.0,74,0.00,,,0.00,meteohub,2013-03-21 13:35:00,
2013-03-21 09:40:00,34.3,27.0,29.79,North,8,11.0,15.0,74,0.00,,,0.00,meteohub,2013-03-21 13:40:00,
2013-03-21 09:45:00,34.2,27.1,29.80,NNE,24,10.0,14.0,75,0.00,,,0.00,meteohub,2013-03-21 13:45:00,
2013-03-21 09:50:00,33.6,26.6,29.80,North,10,10.0,14.0,75,0.00,,,0.00,meteohub,2013-03-21 13:50:00,
2013-03-21 09:55:00,33.6,26.8,29.80,NNE,16,7.0,14.0,76,0.00,,,0.00,meteohub,2013-03-21 13:55:00,
2013-03-21 10:00:00,33.4,26.8,29.80,NNE,14,11.0,14.0,76,0.00,,,0.00,meteohub,2013-03-21 14:00:00,
2013-03-21 10:05:00,33.3,26.8,29.80,North,354,8.0,13.0,77,0.00,,,0.00,meteohub,2013-03-21 14:05:00,
2013-03-21 10:10:00,33.4,27.0,29.80,NNE,21,8.0,13.0,77,0.00,,,0.00,meteohub,2013-03-21 14:10:00,
2013-03-21 10:15:00,33.4,27.3,29.79,North,351,8.0,13.0,78,0.00,,,0.00,meteohub,2013-03-21 14:15:00,
2013-03-21 10:20:00,33.6,27.1,29.79,NNE,12,8.0,12.0,77,0.00,,,0.00,meteohub,2013-03-21 14:20:00,
2013-03-21 10:25:00,33.4,27.0,29.79,ENE,60,8.0,12.0,77,0.00,,,0.00,meteohub,2013-03-21 14:25:00,
2013-03-21 10:30:00,33.3,27.1,29.79,NNE,17,10.0,13.0,78,0.00,,,0.00,meteohub,2013-03-21 14:30:00,
2013-03-21 10:35:00,33.1,27.0,29.79,NNE,16,10.0,14.0,78,0.00,,,0.00,meteohub,2013-03-21 14:35:00,
2013-03-21 10:40:00,32.7,26.6,29.79,NNE,27,11.0,14.0,78,0.00,,,0.00,meteohub,2013-03-21 14:40:00,
2013-03-21 10:45:00,32.7,26.6,29.79,NNE,20,9.0,14.0,78,0.00,,,0.00,meteohub,2013-03-21 14:45:00,
2013-03-21 10:50:00,32.7,26.2,29.79,NNE,30,8.0,13.0,77,0.00,,,0.00,meteohub,2013-03-21 14:50:00,
2013-03-21 10:55:00,32.7,26.2,29.79,NNE,21,9.0,13.0,77,0.00,,,0.00,meteohub,2013-03-21 14:55:00,
2013-03-21 11:00:00,33.1,26.6,29.78,NE,48,6.0,14.0,77,0.00,,,0.00,meteohub,2013-03-21 15:00:00,
2013-03-21 11:05:00,33.1,26.6,29.78,NNE,33,8.0,14.0,77,0.00,,,0.00,meteohub,2013-03-21 15:05:00,
2013-03-21 11:10:00,33.1,26.6,29.78,North,5,13.0,14.0,77,0.00,,,0.00,meteohub,2013-03-21 15:10:00,
2013-03-21 11:15:00,33.3,26.8,29.78,NE,34,8.0,13.0,77,0.00,,,0.00,meteohub,2013-03-21 15:15:00,
2013-03-21 11:20:00,33.3,26.6,29.77,NNE,30,11.0,14.0,76,0.00,,,0.00,meteohub,2013-03-21 15:20:00,
2013-03-21 11:25:00,33.3,26.8,29.78,North,0,11.0,14.0,77,0.00,,,0.00,meteohub,2013-03-21 15:25:00,
2013-03-21 11:30:00,33.1,26.6,29.77,North,6,6.0,13.0,77,0.00,,,0.00,meteohub,2013-03-21 15:30:00,
2013-03-21 11:35:00,33.1,26.6,29.77,North,359,9.0,15.0,77,0.00,,,0.00,meteohub,2013-03-21 15:35:00,
2013-03-21 11:40:00,33.4,27.0,29.77,NNE,15,7.0,15.0,77,0.00,,,0.00,meteohub,2013-03-21 15:40:00,
2013-03-21 11:45:00,33.3,26.8,29.76,NNW,347,8.0,15.0,77,0.00,,,0.00,meteohub,2013-03-21 15:45:00,
2013-03-21 11:50:00,33.1,26.6,29.76,North,6,9.0,13.0,77,0.00,,,0.00,meteohub,2013-03-21 15:50:00,
2013-03-21 11:55:00,33.3,27.5,29.75,North,349,7.0,13.0,79,0.00,,,0.00,meteohub,2013-03-21 15:55:00,
2013-03-21 12:00:00,33.3,26.8,29.75,NW,323,9.0,13.0,77,0.00,,,0.00,meteohub,2013-03-21 16:00:00,
2013-03-21 12:05:00,33.8,27.7,29.75,NW,314,11.0,13.0,78,0.00,,,0.00,meteohub,2013-03-21 16:05:00,
2013-03-21 12:10:00,34.0,27.5,29.75,North,354,12.0,13.0,77,0.00,,,0.00,meteohub,2013-03-21 16:10:00,
2013-03-21 12:15:00,34.0,27.5,29.75,NW,314,9.0,14.0,77,0.00,,,0.00,meteohub,2013-03-21 16:15:00,
2013-03-21 12:20:00,34.2,27.7,29.74,North,8,7.0,14.0,77,0.00,,,0.00,meteohub,2013-03-21 16:20:00,
2013-03-21 12:25:00,34.2,27.3,29.74,North,8,10.0,14.0,76,0.00,,,0.00,meteohub,2013-03-21 16:25:00,
2013-03-21 12:30:00,34.3,27.9,29.74,NNW,330,11.0,16.0,77,0.00,,,0.00,meteohub,2013-03-21 16:30:00,
2013-03-21 12:35:00,34.0,27.9,29.74,NNW,331,11.0,16.0,78,0.00,,,0.00,meteohub,2013-03-21 16:35:00,
2013-03-21 12:40:00,34.0,28.8,29.73,NW,326,9.0,16.0,81,0.00,,,0.00,meteohub,2013-03-21 16:40:00,
2013-03-21 12:45:00,33.8,28.6,29.73,NNW,333,9.0,15.0,81,0.00,,,0.00,meteohub,2013-03-21 16:45:00,
2013-03-21 12:50:00,33.8,28.6,29.73,NNW,339,8.0,15.0,81,0.00,,,0.00,meteohub,2013-03-21 16:50:00,
2013-03-21 12:55:00,33.6,28.0,29.72,NNE,15,6.0,16.0,80,0.00,,,0.00,meteohub,2013-03-21 16:55:00,
2013-03-21 13:00:00,33.6,28.4,29.72,NNE,12,12.0,16.0,81,0.00,,,0.00,meteohub,2013-03-21 17:00:00,
2013-03-21 13:05:00,33.6,28.8,29.72,NNW,336,8.0,15.0,82,0.00,,,0.00,meteohub,2013-03-21 17:05:00,
2013-03-21 13:10:00,33.6,28.9,29.72,North,354,12.0,16.0,83,0.00,,,0.00,meteohub,2013-03-21 17:10:00,
2013-03-21 13:15:00,33.4,28.2,29.72,North,8,12.0,16.0,81,0.00,,,0.00,meteohub,2013-03-21 17:15:00,
2013-03-21 13:20:00,33.4,28.6,29.72,NNW,328,9.0,16.0,82,0.00,,,0.00,meteohub,2013-03-21 17:20:00,
2013-03-21 13:26:00,33.4,28.2,29.72,NNE,21,10.0,16.0,81,0.00,,,0.00,meteohub,2013-03-21 17:26:00,
2013-03-21 13:31:00,33.3,27.7,29.72,NNE,19,13.0,16.0,80,0.00,,,0.00,meteohub,2013-03-21 17:31:00,
2013-03-21 13:36:00,33.1,27.5,29.71,NNE,14,6.0,15.0,80,0.00,,,0.00,meteohub,2013-03-21 17:36:00,
2013-03-21 13:41:00,33.3,28.4,29.71,NNW,342,6.0,15.0,82,0.00,,,0.00,meteohub,2013-03-21 17:41:00,
2013-03-21 13:46:00,33.3,27.7,29.71,NNE,26,12.0,14.0,80,0.00,,,0.00,meteohub,2013-03-21 17:46:00,
2013-03-21 13:51:00,33.3,27.7,29.70,NNE,23,10.0,14.0,80,0.00,,,0.00,meteohub,2013-03-21 17:51:00,
2013-03-21 13:56:00,33.3,28.0,29.70,North,1,8.0,13.0,81,0.00,,,0.00,meteohub,2013-03-21 17:56:00,
2013-03-21 14:02:00,33.3,27.7,29.70,NNW,341,5.0,13.0,80,0.00,,,0.00,meteohub,2013-03-21 18:02:00,
2013-03-21 14:07:00,33.4,27.9,29.70,NNE,21,5.0,11.0,80,0.00,,,0.00,meteohub,2013-03-21 18:07:00,
2013-03-21 14:12:00,33.6,28.0,29.70,North,358,6.0,10.0,80,0.00,,,0.00,meteohub,2013-03-21 18:12:00,
2013-03-21 14:17:00,34.0,28.4,29.69,NNE,15,8.0,10.0,80,0.00,,,0.00,meteohub,2013-03-21 18:17:00,
2013-03-21 14:22:00,34.2,28.0,29.70,NNE,16,6.0,9.0,78,0.00,,,0.00,meteohub,2013-03-21 18:22:00,
2013-03-21 14:27:00,34.3,27.9,29.69,North,7,4.0,9.0,77,0.00,,,0.00,meteohub,2013-03-21 18:27:00,
2013-03-21 14:32:00,34.9,28.4,29.69,NNW,345,7.0,9.0,77,0.00,,,0.00,meteohub,2013-03-21 18:32:00,
2013-03-21 14:37:00,34.9,28.0,29.69,NW,326,4.0,8.0,76,0.00,,,0.00,meteohub,2013-03-21 18:37:00,
2013-03-21 14:42:00,35.1,27.9,29.69,North,0,7.0,9.0,75,0.00,,,0.00,meteohub,2013-03-21 18:42:00,
2013-03-21 14:47:00,35.2,27.5,29.68,North,349,8.0,10.0,73,0.00,,,0.00,meteohub,2013-03-21 18:47:00,
2013-03-21 14:52:00,35.2,27.1,29.68,NNW,328,10.0,11.0,72,0.00,,,0.00,meteohub,2013-03-21 18:52:00,
2013-03-21 14:57:00,35.1,27.9,29.68,NW,324,8.0,14.0,75,0.00,,,0.00,meteohub,2013-03-21 18:57:00,
2013-03-21 15:02:00,34.9,28.0,29.68,NW,308,8.0,15.0,76,0.00,,,0.00,meteohub,2013-03-21 19:02:00,
2013-03-21 15:07:00,34.5,27.7,29.68,NW,314,5.0,15.0,76,0.00,,,0.00,meteohub,2013-03-21 19:07:00,
2013-03-21 15:12:00,34.0,27.1,29.68,NNW,338,8.0,17.0,76,0.00,,,0.00,meteohub,2013-03-21 19:12:00,
2013-03-21 15:17:00,34.0,27.9,29.68,NW,319,8.0,17.0,78,0.00,,,0.00,meteohub,2013-03-21 19:17:00,
2013-03-21 15:22:00,33.8,27.7,29.68,NNW,339,12.0,17.0,78,0.00,,,0.00,meteohub,2013-03-21 19:22:00,
2013-03-21 15:27:00,33.6,27.5,29.68,North,9,12.0,16.0,78,0.00,,,0.00,meteohub,2013-03-21 19:27:00,
2013-03-21 15:32:00,33.6,27.9,29.67,NW,309,12.0,16.0,79,0.00,,,0.00,meteohub,2013-03-21 19:32:00,
2013-03-21 15:37:00,33.8,27.7,29.67,NNW,328,7.0,17.0,78,0.00,,,0.00,meteohub,2013-03-21 19:37:00,
2013-03-21 15:42:00,33.8,28.0,29.67,NNW,339,9.0,18.0,79,0.00,,,0.00,meteohub,2013-03-21 19:42:00,
2013-03-21 15:47:00,34.0,27.5,29.67,North,8,7.0,19.0,77,0.00,,,0.00,meteohub,2013-03-21 19:47:00,
2013-03-21 15:52:00,34.0,27.9,29.67,NW,315,12.0,19.0,78,0.00,,,0.00,meteohub,2013-03-21 19:52:00,
2013-03-21 15:57:00,33.6,27.9,29.67,NNW,342,14.0,20.0,79,0.00,,,0.00,meteohub,2013-03-21 19:57:00,
2013-03-21 16:02:00,33.6,28.0,29.67,NW,321,13.0,20.0,80,0.00,,,0.00,meteohub,2013-03-21 20:02:00,
2013-03-21 16:07:00,33.4,27.7,29.67,NNW,338,13.0,20.0,79,0.00,,,0.00,meteohub,2013-03-21 20:07:00,
2013-03-21 16:12:00,33.4,27.9,29.67,NNW,347,10.0,19.0,80,0.00,,,0.00,meteohub,2013-03-21 20:12:00,
2013-03-21 16:17:00,33.4,27.9,29.67,North,353,10.0,19.0,80,0.00,,,0.00,meteohub,2013-03-21 20:17:00,
2013-03-21 16:23:00,33.4,27.9,29.67,NNW,333,11.0,21.0,80,0.00,,,0.00,meteohub,2013-03-21 20:23:00,
2013-03-21 16:28:00,33.4,27.9,29.67,North,4,15.0,21.0,80,0.00,,,0.00,meteohub,2013-03-21 20:28:00,
2013-03-21 16:33:00,33.4,27.9,29.67,NNW,345,13.0,19.0,80,0.00,,,0.00,meteohub,2013-03-21 20:33:00,
2013-03-21 16:38:00,33.3,27.7,29.66,NE,37,17.0,19.0,80,0.00,,,0.00,meteohub,2013-03-21 20:38:00,
2013-03-21 16:43:00,33.3,28.4,29.67,North,1,17.0,20.0,82,0.00,,,0.00,meteohub,2013-03-21 20:43:00,
2013-03-21 16:48:00,33.3,28.4,29.67,North,353,11.0,20.0,82,0.00,,,0.00,meteohub,2013-03-21 20:48:00,
2013-03-21 16:53:00,33.1,28.2,29.67,NNW,333,11.0,20.0,82,0.00,,,0.00,meteohub,2013-03-21 20:53:00,
2013-03-21 16:58:00,32.7,28.4,29.67,NNW,329,11.0,18.0,84,0.00,,,0.00,meteohub,2013-03-21 20:58:00,
2013-03-21 17:03:00,32.7,28.8,29.67,NNW,339,11.0,18.0,85,0.00,,,0.00,meteohub,2013-03-21 21:03:00,
2013-03-21 17:08:00,32.9,28.9,29.67,NW,326,9.0,18.0,85,0.00,,,0.00,meteohub,2013-03-21 21:08:00,
2013-03-21 17:13:00,32.9,29.1,29.67,North,352,11.0,18.0,86,0.00,,,0.00,meteohub,2013-03-21 21:13:00,
2013-03-21 17:18:00,32.7,28.4,29.67,NNE,23,15.0,16.0,84,0.00,,,0.00,meteohub,2013-03-21 21:18:00,
2013-03-21 17:23:00,32.7,28.9,29.67,NW,326,7.0,18.0,86,0.00,,,0.00,meteohub,2013-03-21 21:23:00,
2013-03-21 17:28:00,32.7,28.9,29.67,North,359,4.0,18.0,86,0.00,,,0.00,meteohub,2013-03-21 21:28:00,
2013-03-21 17:33:00,32.7,29.3,29.67,NW,318,10.0,18.0,87,0.00,,,0.00,meteohub,2013-03-21 21:33:00,
2013-03-21 17:38:00,32.7,28.9,29.67,NNW,341,5.0,17.0,86,0.00,,,0.00,meteohub,2013-03-21 21:38:00,
2013-03-21 17:43:00,32.7,29.3,29.67,NNW,338,3.0,16.0,87,0.00,,,0.00,meteohub,2013-03-21 21:43:00,
2013-03-21 17:48:00,32.5,28.8,29.67,NNW,337,8.0,16.0,86,0.00,,,0.00,meteohub,2013-03-21 21:48:00,
2013-03-21 17:53:00,32.5,28.8,29.68,NW,317,8.0,16.0,86,0.00,,,0.00,meteohub,2013-03-21 21:53:00,
2013-03-21 17:58:00,32.5,29.1,29.67,NNW,335,11.0,14.0,87,0.00,,,0.00,meteohub,2013-03-21 21:58:00,
2013-03-21 18:03:00,32.4,29.1,29.67,WNW,300,5.0,16.0,88,0.00,,,0.00,meteohub,2013-03-21 22:03:00,
2013-03-21 18:08:00,32.4,29.5,29.67,NW,319,7.0,16.0,89,0.00,,,0.00,meteohub,2013-03-21 22:08:00,
2013-03-21 18:13:00,32.4,29.5,29.67,NW,326,4.0,16.0,89,0.00,,,0.00,meteohub,2013-03-21 22:13:00,
2013-03-21 18:18:00,32.4,29.1,29.68,NNW,329,6.0,12.0,88,0.00,,,0.00,meteohub,2013-03-21 22:18:00,
2013-03-21 18:23:00,32.2,29.3,29.68,NNE,28,4.0,12.0,89,0.00,,,0.00,meteohub,2013-03-21 22:23:00,
2013-03-21 18:28:00,32.2,29.7,29.68,NNW,335,9.0,11.0,90,0.00,,,0.00,meteohub,2013-03-21 22:28:00,
2013-03-21 18:33:00,32.2,29.7,29.68,NW,319,7.0,11.0,90,0.00,,,0.00,meteohub,2013-03-21 22:33:00,
2013-03-21 18:38:00,32.0,29.5,29.68,NW,323,8.0,11.0,90,0.00,,,0.00,meteohub,2013-03-21 22:38:00,
2013-03-21 18:43:00,32.2,29.8,29.68,NW,309,5.0,11.0,91,0.00,,,0.00,meteohub,2013-03-21 22:43:00,
2013-03-21 18:48:00,31.8,29.3,29.68,NNW,332,4.0,11.0,90,0.00,,,0.00,meteohub,2013-03-21 22:48:00,
2013-03-21 18:53:00,31.8,29.3,29.68,NW,321,5.0,11.0,90,0.00,,,0.00,meteohub,2013-03-21 22:53:00,
2013-03-21 18:58:00,31.8,28.9,29.68,NNW,343,4.0,11.0,89,0.00,,,0.00,meteohub,2013-03-21 22:58:00,
2013-03-21 19:03:00,31.8,29.3,29.69,North,353,4.0,10.0,90,0.00,,,0.00,meteohub,2013-03-21 23:03:00,
2013-03-21 19:08:00,32.0,29.1,29.69,NW,322,3.0,8.0,89,0.00,,,0.00,meteohub,2013-03-21 23:08:00,
2013-03-21 19:13:00,32.0,29.5,29.69,NW,321,2.0,7.0,90,0.00,,,0.00,meteohub,2013-03-21 23:13:00,
2013-03-21 19:18:00,31.8,29.3,29.69,NNW,331,3.0,7.0,90,0.00,,,0.00,meteohub,2013-03-21 23:18:00,
2013-03-21 19:23:00,31.8,29.5,29.69,NNW,330,4.0,6.0,91,0.00,,,0.00,meteohub,2013-03-21 23:23:00,
2013-03-21 19:28:00,31.6,29.7,29.69,NNW,331,5.0,7.0,92,0.00,,,0.00,meteohub,2013-03-21 23:28:00,
2013-03-21 19:33:00,31.6,29.7,29.69,North,359,5.0,8.0,92,0.00,,,0.00,meteohub,2013-03-21 23:33:00,
2013-03-21 19:38:00,31.5,29.7,29.69,NW,309,3.0,8.0,93,0.00,,,0.00,meteohub,2013-03-21 23:38:00,
2013-03-21 19:44:00,31.3,29.5,29.68,NW,319,3.0,7.0,93,0.00,,,0.00,meteohub,2013-03-21 23:44:00,
2013-03-21 19:48:00,31.3,29.8,29.68,North,351,5.0,7.0,94,0.00,,,0.00,meteohub,2013-03-21 23:48:00,
2013-03-21 19:53:00,31.1,29.7,29.68,North,8,6.0,8.0,94,0.00,,,0.00,meteohub,2013-03-21 23:53:00,
2013-03-21 19:59:00,30.9,29.5,29.68,ENE,58,3.0,9.0,94,0.00,,,0.00,meteohub,2013-03-21 23:59:00,
2013-03-21 20:04:00,30.7,29.3,29.68,NNW,328,2.0,9.0,94,0.00,,,0.00,meteohub,2013-03-22 00:04:00,
2013-03-21 20:09:00,30.9,29.5,29.68,East,89,0.0,9.0,94,0.00,,,0.00,meteohub,2013-03-22 00:09:00,
2013-03-21 20:14:00,30.9,29.5,29.68,ENE,68,2.0,9.0,94,0.00,,,0.00,meteohub,2013-03-22 00:14:00,
2013-03-21 20:19:00,30.9,29.5,29.69,NE,50,4.0,6.0,94,0.00,,,0.00,meteohub,2013-03-22 00:19:00,
2013-03-21 20:24:00,30.9,29.5,29.69,NE,47,1.0,5.0,94,0.00,,,0.00,meteohub,2013-03-22 00:24:00,
2013-03-21 20:29:00,31.1,29.7,29.69,NE,46,4.0,5.0,94,0.00,,,0.00,meteohub,2013-03-22 00:29:00,
2013-03-21 20:34:00,31.3,29.5,29.69,NE,46,2.0,7.0,93,0.00,,,0.00,meteohub,2013-03-22 00:34:00,
2013-03-21 20:39:00,31.3,29.5,29.69,NNE,33,2.0,8.0,93,0.00,,,0.00,meteohub,2013-03-22 00:39:00,
2013-03-21 20:44:00,31.5,29.7,29.69,NE,44,2.0,8.0,93,0.00,,,0.00,meteohub,2013-03-22 00:44:00,
2013-03-21 20:49:00,31.5,29.7,29.69,NNE,23,5.0,8.0,93,0.00,,,0.00,meteohub,2013-03-22 00:49:00,
2013-03-21 20:54:00,31.5,29.7,29.69,NNE,24,4.0,8.0,93,0.00,,,0.00,meteohub,2013-03-22 00:54:00,
2013-03-21 20:59:00,31.6,29.7,29.70,NNW,348,4.0,8.0,92,0.00,,,0.00,meteohub,2013-03-22 00:59:00,
2013-03-21 21:04:00,31.6,29.7,29.70,ENE,60,2.0,8.0,92,0.00,,,0.00,meteohub,2013-03-22 01:04:00,
2013-03-21 21:09:00,31.6,29.7,29.70,NNW,328,2.0,6.0,92,0.00,,,0.00,meteohub,2013-03-22 01:09:00,
2013-03-21 21:14:00,31.6,29.3,29.70,NNE,18,2.0,7.0,91,0.00,,,0.00,meteohub,2013-03-22 01:14:00,
2013-03-21 21:19:00,31.6,29.7,29.70,NNW,339,2.0,7.0,92,0.00,,,0.00,meteohub,2013-03-22 01:19:00,
2013-03-21 21:24:00,31.6,29.3,29.70,NW,314,1.0,7.0,91,0.00,,,0.00,meteohub,2013-03-22 01:24:00,
2013-03-21 21:29:00,31.6,29.3,29.70,North,349,1.0,5.0,91,0.00,,,0.00,meteohub,2013-03-22 01:29:00,
2013-03-21 21:34:00,31.6,29.3,29.70,NNW,328,3.0,5.0,91,0.00,,,0.00,meteohub,2013-03-22 01:34:00,
2013-03-21 21:39:00,31.8,29.5,29.70,WNW,303,2.0,4.0,91,0.00,,,0.00,meteohub,2013-03-22 01:39:00,
2013-03-21 21:44:00,31.8,29.5,29.71,NNW,332,3.0,4.0,91,0.00,,,0.00,meteohub,2013-03-22 01:44:00,
2013-03-21 21:49:00,32.0,29.5,29.71,NW,325,3.0,5.0,90,0.00,,,0.00,meteohub,2013-03-22 01:49:00,
2013-03-21 21:54:00,32.2,29.7,29.70,WNW,295,2.0,5.0,90,0.00,,,0.00,meteohub,2013-03-22 01:54:00,
2013-03-21 21:59:00,32.4,29.8,29.71,NW,325,1.0,5.0,90,0.00,,,0.00,meteohub,2013-03-22 01:59:00,
2013-03-21 22:04:00,32.2,29.3,29.71,WNW,298,2.0,5.0,89,0.00,,,0.00,meteohub,2013-03-22 02:04:00,
2013-03-21 22:09:00,32.2,29.3,29.71,WNW,302,3.0,5.0,89,0.00,,,0.00,meteohub,2013-03-22 02:09:00,
2013-03-21 22:14:00,32.2,29.7,29.71,NW,307,1.0,5.0,90,0.00,,,0.00,meteohub,2013-03-22 02:14:00,
2013-03-21 22:19:00,32.2,29.7,29.71,NW,304,3.0,5.0,90,0.00,,,0.00,meteohub,2013-03-22 02:19:00,
2013-03-21 22:24:00,32.2,29.7,29.71,NW,309,2.0,5.0,90,0.00,,,0.00,meteohub,2013-03-22 02:24:00,
2013-03-21 22:29:00,32.2,29.7,29.71,West,274,2.0,5.0,90,0.00,,,0.00,meteohub,2013-03-22 02:29:00,
2013-03-21 22:34:00,32.2,29.8,29.71,West,277,3.0,5.0,91,0.00,,,0.00,meteohub,2013-03-22 02:34:00,
2013-03-21 22:39:00,32.2,29.7,29.71,WNW,291,2.0,6.0,90,0.00,,,0.00,meteohub,2013-03-22 02:39:00,
2013-03-21 22:44:00,32.4,29.8,29.71,WNW,301,4.0,6.0,90,0.00,,,0.00,meteohub,2013-03-22 02:44:00,
2013-03-21 22:49:00,32.4,29.8,29.71,West,267,3.0,5.0,90,0.00,,,0.00,meteohub,2013-03-22 02:49:00,
2013-03-21 22:54:00,32.4,29.8,29.71,WNW,285,2.0,6.0,90,0.00,,,0.00,meteohub,2013-03-22 02:54:00,
2013-03-21 22:59:00,32.5,29.7,29.71,WNW,291,4.0,6.0,89,0.00,,,0.00,meteohub,2013-03-22 02:59:00,
2013-03-21 23:04:00,32.5,30.0,29.71,NW,309,5.0,6.0,90,0.00,,,0.00,meteohub,2013-03-22 03:04:00,
2013-03-21 23:09:00,32.7,29.5,29.71,West,270,4.0,6.0,88,0.00,,,0.00,meteohub,2013-03-22 03:09:00,
2013-03-21 23:14:00,32.7,29.3,29.71,WNW,291,2.0,6.0,87,0.00,,,0.00,meteohub,2013-03-22 03:14:00,
2013-03-21 23:19:00,33.1,27.9,29.71,NW,321,5.0,6.0,81,0.00,,,0.00,meteohub,2013-03-22 03:19:00,
2013-03-21 23:24:00,33.3,26.2,29.71,NW,314,4.0,8.0,75,0.00,,,0.00,meteohub,2013-03-22 03:24:00,
2013-03-21 23:29:00,33.6,25.2,29.71,NW,325,6.0,8.0,71,0.00,,,0.00,meteohub,2013-03-22 03:29:00,
2013-03-21 23:34:00,33.6,21.6,29.71,NW,321,7.0,10.0,61,0.00,,,0.00,meteohub,2013-03-22 03:34:00,
2013-03-21 23:39:00,33.8,21.0,29.71,NW,316,6.0,16.0,59,0.00,,,0.00,meteohub,2013-03-22 03:39:00,
2013-03-21 23:44:00,34.0,22.3,29.71,WNW,303,9.0,16.0,62,0.00,,,0.00,meteohub,2013-03-22 03:44:00,
2013-03-21 23:49:00,34.0,20.8,29.71,NW,309,10.0,17.0,58,0.00,,,0.00,meteohub,2013-03-22 03:49:00,
2013-03-21 23:54:00,34.0,21.2,29.71,NNW,328,14.0,19.0,59,0.00,,,0.00,meteohub,2013-03-22 03:54:00,
2013-03-21 23:59:00,33.6,19.9,29.71,NW,314,10.0,19.0,57,0.00,,,0.00,meteohub,2013-03-22 03:59:00,